Lucas, Iowa
Current Conditions -  °F | °C
As of 2:15 PM on Thursday 18 Dec 2014 (Local Time) from KCNC Reporting Station
Unknown Precip Unknown Precip  
Wind Chill: 28°   Ceiling: 3800
Heat Index: 28°   Visibility: 8mi
Dew Point: 25°   Wind: 0mph
Humidity: 86%   Direction: NA
Pressure: 30.22"   Gusts: NA
Location:  41.03°N, 93.46°W
Report Text: KCNC 182015Z AUTO 00000KT 8SM -UP SCT012 BKN038 BKN050 M02/M04 A3022 RMK AO2
Loading
Personal Weather Stations






























Interactive Weather Map New forecast layout! Learn more

10-Day Weather Forecast

Advertisements
Track Severe Weather on mobile